Time;durP1;ratioP1;P1;durP2;ratioP2;P2;SDS_P1;SDS_P2;PMS_P1;PMS_P2;Temp;Humidity;BMP_temperature;BMP_pressure;BME280_temperature;BME280_humidity;BME280_pressure;Samples;Min_cycle;Max_cycle;Signal;HPM_P1;HPM_P2
2022/06/16 00:02:01;;;;;;;2.97;1.88;;;;;;;-143.85;100.00;70650.75;5035349;28;20033;-89
2022/06/16 00:04:26;;;;;;;2.42;2.08;;;;;;;-143.85;100.00;70650.75;5035521;28;20112;-89
2022/06/16 00:06:55;;;;;;;1.77;1.58;;;;;;;-143.85;100.00;70650.75;5035307;28;20029;-90
2022/06/16 00:09:21;;;;;;;3.38;1.65;;;;;;;-143.85;100.00;70650.75;5052837;28;20017;-90
2022/06/16 00:11:47;;;;;;;1.50;1.40;;;;;;;-143.85;100.00;70650.75;5035141;28;20121;-89
2022/06/16 00:14:12;;;;;;;7.93;1.90;;;;;;;-143.85;100.00;70650.75;5035287;28;20515;-89
2022/06/16 00:16:38;;;;;;;2.38;1.83;;;;;;;-143.85;100.00;70650.75;5035505;28;20481;-90
2022/06/16 00:19:03;;;;;;;2.00;1.60;;;;;;;-143.85;100.00;70650.75;5034868;28;20473;-89
2022/06/16 00:21:29;;;;;;;3.22;2.15;;;;;;;-143.85;100.00;70650.75;5035071;28;20477;-89
2022/06/16 00:23:55;;;;;;;2.47;1.60;;;;;;;-143.85;100.00;70650.75;5035007;28;20036;-90
2022/06/16 00:26:23;;;;;;;3.58;1.77;;;;;;;-143.85;100.00;70650.75;5035092;28;20092;-91
2022/06/16 00:28:49;;;;;;;2.42;2.22;;;;;;;-143.85;100.00;70650.75;5052721;28;20450;-90
2022/06/16 00:31:17;;;;;;;6.13;1.70;;;;;;;-143.85;100.00;70650.75;5035292;28;20021;-90
2022/06/16 00:33:44;;;;;;;3.10;2.15;;;;;;;-143.85;100.00;70650.75;5035213;28;20032;-90
2022/06/16 00:36:10;;;;;;;4.30;1.85;;;;;;;-143.85;100.00;70650.75;5052924;28;20057;-90
2022/06/16 00:38:35;;;;;;;2.35;1.85;;;;;;;-143.85;100.00;70650.75;5052525;28;20029;-90
2022/06/16 00:41:01;;;;;;;4.63;1.10;;;;;;;-143.85;100.00;70650.75;5035713;28;20079;-91
2022/06/16 00:43:27;;;;;;;5.38;1.50;;;;;;;-143.85;100.00;70650.75;5034935;28;20411;-90
2022/06/16 00:46:02;;;;;;;2.33;1.73;;;;;;;-143.85;100.00;70650.75;5035100;28;20101;-91
2022/06/16 00:48:30;;;;;;;2.63;1.30;;;;;;;-143.85;100.00;70650.75;5052746;28;20060;-90
2022/06/16 00:51:22;;;;;;;2.78;1.58;;;;;;;-143.85;100.00;70650.75;5038491;28;20116;-91
2022/06/16 00:53:48;;;;;;;2.30;1.50;;;;;;;-143.85;100.00;70650.75;5038473;28;20115;-91
2022/06/16 00:56:18;;;;;;;2.90;1.45;;;;;;;-143.85;100.00;70650.75;5038484;28;20025;-91
2022/06/16 00:58:47;;;;;;;2.05;1.20;;;;;;;-143.85;100.00;70650.75;5056116;28;20029;-91
2022/06/16 01:01:14;;;;;;;2.55;1.73;;;;;;;-143.85;100.00;70650.75;5038227;28;20489;-89
2022/06/16 01:06:27;;;;;;;1.58;1.48;;;;;;;-143.85;100.00;70650.75;5056421;28;20463;-89
2022/06/16 01:09:03;;;;;;;3.40;1.92;;;;;;;-143.85;100.00;70650.75;5056006;28;20061;-89
2022/06/16 01:15:18;;;;;;;2.70;1.92;;;;;;;-143.85;100.00;70650.75;5056249;28;20047;-89
2022/06/16 01:18:08;;;;;;;1.52;1.30;;;;;;;-143.85;100.00;70650.75;5055747;28;20025;-89
2022/06/16 01:20:52;;;;;;;3.67;1.67;;;;;;;-143.85;100.00;70650.75;5038750;28;20044;-88
2022/06/16 01:23:55;;;;;;;2.38;0.90;;;;;;;-143.85;100.00;70650.75;5038168;28;20119;-91
2022/06/16 01:26:36;;;;;;;2.25;1.75;;;;;;;-143.85;100.00;70650.75;5038220;28;20039;-90
2022/06/16 01:29:20;;;;;;;3.42;1.83;;;;;;;-143.85;100.00;70650.75;5038353;28;20025;-91
2022/06/16 01:31:57;;;;;;;5.55;1.75;;;;;;;-143.85;100.00;70650.75;5055971;28;20112;-90
2022/06/16 01:34:38;;;;;;;1.58;1.40;;;;;;;-143.85;100.00;70650.75;5037962;28;20033;-90
2022/06/16 01:37:33;;;;;;;1.92;1.50;;;;;;;-143.85;100.00;70650.75;5037859;28;20045;-90
2022/06/16 01:40:04;;;;;;;6.10;1.80;;;;;;;-143.85;100.00;70650.75;5024586;28;20052;-90
2022/06/16 01:42:34;;;;;;;4.93;1.80;;;;;;;-143.85;100.00;70650.75;5037740;28;20033;-90
2022/06/16 01:45:23;;;;;;;2.75;1.40;;;;;;;-143.85;100.00;70650.75;5037640;28;20071;-90
2022/06/16 01:47:50;;;;;;;2.92;1.50;;;;;;;-143.85;100.00;70650.75;5037424;28;20025;-90
2022/06/16 01:50:23;;;;;;;2.67;1.55;;;;;;;-143.85;100.00;70650.75;5037518;28;20450;-90
2022/06/16 01:52:56;;;;;;;1.88;1.40;;;;;;;-143.85;100.00;70650.75;5037825;28;20033;-91
2022/06/16 01:55:36;;;;;;;1.63;1.38;;;;;;;-143.85;100.00;70650.75;5037323;28;20036;-91
2022/06/16 01:58:07;;;;;;;5.53;1.90;;;;;;;-143.85;100.00;70650.75;5037702;28;20021;-90
2022/06/16 02:00:34;;;;;;;4.28;1.70;;;;;;;-143.85;100.00;70650.75;5036950;28;20025;-92
2022/06/16 02:03:10;;;;;;;4.40;1.83;;;;;;;-143.85;100.00;70650.75;5037303;28;20025;-92
2022/06/16 02:05:42;;;;;;;2.95;2.03;;;;;;;-143.85;100.00;70650.75;5038209;28;20403;-93
2022/06/16 02:08:16;;;;;;;2.17;1.98;;;;;;;-143.85;100.00;70650.75;5037479;28;20029;-93
2022/06/16 02:10:55;;;;;;;3.40;2.42;;;;;;;-143.85;100.00;70650.75;5054923;28;20029;-93
2022/06/16 02:13:27;;;;;;;2.60;1.75;;;;;;;-143.85;100.00;70650.75;5036790;28;20080;-92
2022/06/16 02:16:01;;;;;;;3.53;1.95;;;;;;;-143.85;100.00;70650.75;5037055;28;20056;-92
2022/06/16 02:18:33;;;;;;;2.72;2.13;;;;;;;-143.85;100.00;70650.75;5036699;28;20554;-92
2022/06/16 02:21:02;;;;;;;4.80;1.80;;;;;;;-143.85;100.00;70650.75;5036858;28;20103;-91
2022/06/16 02:23:28;;;;;;;2.72;2.03;;;;;;;-143.85;100.00;70650.75;5036842;28;20060;-92
2022/06/16 02:25:56;;;;;;;8.90;2.38;;;;;;;-143.85;100.00;70650.75;5036667;28;20055;-92
2022/06/16 02:28:22;;;;;;;;;;;;;;;-143.85;100.00;70650.75;5037049;28;20040;-91
2022/06/16 02:31:06;;;;;;;3.88;2.90;;;;;;;-143.85;100.00;70650.75;5036608;28;19909;-92
2022/06/16 02:33:44;;;;;;;2.70;2.30;;;;;;;-143.85;100.00;70650.75;5036454;28;20029;-91
2022/06/16 02:36:16;;;;;;;6.43;3.35;;;;;;;-143.85;100.00;70650.75;5036577;28;20033;-89
2022/06/16 02:38:57;;;;;;;2.85;2.25;;;;;;;-143.85;100.00;70650.75;5036329;28;20031;-89
2022/06/16 02:41:49;;;;;;;4.63;3.08;;;;;;;-143.85;100.00;70650.75;5036411;28;20125;-89
2022/06/16 02:44:38;;;;;;;6.60;3.50;;;;;;;-143.85;100.00;70650.75;5053474;28;20044;-89
2022/06/16 02:47:03;;;;;;;5.90;3.85;;;;;;;-143.85;100.00;70650.75;5036892;28;20446;-88
2022/06/16 02:49:34;;;;;;;4.15;2.92;;;;;;;-143.85;100.00;70650.75;5036095;28;20059;-89
2022/06/16 02:52:19;;;;;;;7.45;4.47;;;;;;;-143.85;100.00;70650.75;5036901;28;20033;-89
2022/06/16 02:54:55;;;;;;;6.78;3.33;;;;;;;-143.85;100.00;70650.75;5036749;28;20021;-89
2022/06/16 02:57:41;;;;;;;4.75;3.10;;;;;;;-143.85;100.00;70650.75;5036761;28;20115;-89
2022/06/16 03:00:17;;;;;;;5.15;3.63;;;;;;;-143.85;100.00;70650.75;5036286;28;20032;-88
2022/06/16 03:02:43;;;;;;;15.50;3.28;;;;;;;-143.85;100.00;70650.75;5036389;28;20396;-88
2022/06/16 03:05:11;;;;;;;4.95;3.13;;;;;;;-143.85;100.00;70650.75;5036258;28;20113;-89
2022/06/16 03:07:38;;;;;;;3.85;2.58;;;;;;;-143.85;100.00;70650.75;5035926;28;20039;-89
2022/06/16 03:10:05;;;;;;;4.22;2.97;;;;;;;-143.85;100.00;70650.75;5036436;28;20039;-89
2022/06/16 03:12:30;;;;;;;4.97;3.10;;;;;;;-143.85;100.00;70650.75;5035252;28;20049;-89
2022/06/16 03:14:56;;;;;;;9.40;3.03;;;;;;;-143.85;100.00;70650.75;5035922;28;20031;-90
2022/06/16 03:17:21;;;;;;;4.32;2.25;;;;;;;-143.85;100.00;70650.75;5053409;28;20029;-89
2022/06/16 03:19:47;;;;;;;9.05;2.65;;;;;;;-143.85;100.00;70650.75;5035629;28;20024;-88
2022/06/16 03:22:12;;;;;;;3.30;2.60;;;;;;;-143.85;100.00;70650.75;5035804;28;20498;-88
2022/06/16 03:24:38;;;;;;;17.55;2.53;;;;;;;-143.85;100.00;70650.75;5053281;28;20377;-89
2022/06/16 03:27:05;;;;;;;7.45;3.90;;;;;;;-143.85;100.00;70650.75;5053364;28;20036;-89
2022/06/16 03:29:31;;;;;;;4.40;2.63;;;;;;;-143.85;100.00;70650.75;5035631;28;20025;-88
2022/06/16 03:31:56;;;;;;;5.20;3.15;;;;;;;-143.85;100.00;70650.75;5035515;28;20036;-89
2022/06/16 03:34:23;;;;;;;6.10;2.72;;;;;;;-143.85;100.00;70650.75;5035651;28;20183;-89
2022/06/16 03:36:49;;;;;;;6.38;2.90;;;;;;;-143.85;100.00;70650.75;5035660;28;20029;-88
2022/06/16 03:39:15;;;;;;;4.55;2.60;;;;;;;-143.85;100.00;70650.75;5035312;28;20036;-88
2022/06/16 03:41:40;;;;;;;2.90;2.50;;;;;;;-143.85;100.00;70650.75;5053343;28;20036;-89
2022/06/16 03:44:06;;;;;;;4.03;2.60;;;;;;;-143.85;100.00;70650.75;5035419;28;20021;-88
2022/06/16 03:46:32;;;;;;;4.38;3.30;;;;;;;-143.85;100.00;70650.75;5035368;28;20119;-89
2022/06/16 03:48:58;;;;;;;2.80;2.28;;;;;;;-143.85;100.00;70650.75;5035264;28;20091;-89
2022/06/16 03:51:24;;;;;;;5.55;2.83;;;;;;;-143.85;100.00;70650.75;5035473;28;20128;-88
2022/06/16 03:53:50;;;;;;;3.50;2.22;;;;;;;-143.85;100.00;70650.75;5035138;28;20059;-89
2022/06/16 03:56:16;;;;;;;2.70;2.15;;;;;;;-143.85;100.00;70650.75;5035313;28;20094;-89
2022/06/16 03:58:41;;;;;;;2.67;2.22;;;;;;;-143.85;100.00;70650.75;5035173;28;20021;-89
2022/06/16 04:01:07;;;;;;;10.43;2.97;;;;;;;-143.85;100.00;70650.75;5052882;28;20029;-88
2022/06/16 04:06:18;;;;;;;11.93;4.32;;;;;;;-143.85;100.00;70650.75;5053145;28;20091;-90
2022/06/16 04:08:43;;;;;;;8.55;4.63;;;;;;;-143.85;100.00;70650.75;5052881;28;20025;-91
2022/06/16 04:11:27;;;;;;;15.75;5.65;;;;;;;-143.85;100.00;70650.75;5035173;28;20025;-90
2022/06/16 04:13:55;;;;;;;13.18;4.32;;;;;;;-143.85;100.00;70650.75;5035497;28;20501;-91
2022/06/16 04:16:21;;;;;;;9.23;3.78;;;;;;;-143.85;100.00;70650.75;5035415;28;20029;-90
2022/06/16 04:18:47;;;;;;;8.52;4.88;;;;;;;-143.85;100.00;70650.75;5034951;28;20037;-91
2022/06/16 04:21:13;;;;;;;12.00;3.85;;;;;;;-143.85;100.00;70650.75;5035919;28;20074;-90
2022/06/16 04:23:39;;;;;;;8.77;3.63;;;;;;;-143.85;100.00;70650.75;5053628;28;20025;-90
2022/06/16 04:26:05;;;;;;;5.60;2.72;;;;;;;-143.85;100.00;70650.75;5038948;28;20120;-90
2022/06/16 04:28:31;;;;;;;4.60;2.45;;;;;;;-143.85;100.00;70650.75;5056632;28;20036;-92
2022/06/16 04:30:57;;;;;;;9.27;2.50;;;;;;;-143.85;100.00;70650.75;5038887;28;20056;-93
2022/06/16 04:33:23;;;;;;;4.80;3.28;;;;;;;-143.85;100.00;70650.75;5056799;28;20043;-92
2022/06/16 04:35:48;;;;;;;4.43;2.42;;;;;;;-143.85;100.00;70650.75;5038614;28;20032;-92
2022/06/16 04:38:14;;;;;;;4.68;2.70;;;;;;;-143.85;100.00;70650.75;5039440;28;20029;-92
2022/06/16 04:40:39;;;;;;;5.93;2.67;;;;;;;-143.85;100.00;70650.75;5038601;28;20512;-91
2022/06/16 04:43:05;;;;;;;7.78;2.47;;;;;;;-143.85;100.00;70650.75;5038799;28;20064;-92
2022/06/16 04:45:31;;;;;;;3.47;2.75;;;;;;;-143.85;100.00;70650.75;5038630;28;20104;-92
2022/06/16 04:47:56;;;;;;;5.38;3.10;;;;;;;-143.85;100.00;70650.75;5038788;28;20028;-93
2022/06/16 04:50:21;;;;;;;3.83;2.97;;;;;;;-143.85;100.00;70650.75;5038731;28;20560;-93
2022/06/16 04:52:47;;;;;;;5.53;2.70;;;;;;;-143.85;100.00;70650.75;5038491;28;20029;-92
2022/06/16 04:55:15;;;;;;;8.15;3.08;;;;;;;-143.85;100.00;70650.75;5056179;28;20130;-93
2022/06/16 04:57:40;;;;;;;6.18;3.33;;;;;;;-143.85;100.00;70650.75;5038357;28;20491;-93
2022/06/16 05:00:07;;;;;;;6.28;3.35;;;;;;;-143.85;100.00;70650.75;5038679;28;20028;-89
2022/06/16 05:02:32;;;;;;;4.22;2.65;;;;;;;-143.85;100.00;70650.75;5055873;28;20029;-91
2022/06/16 05:04:58;;;;;;;5.93;3.22;;;;;;;-143.85;100.00;70650.75;5038380;28;20116;-90
2022/06/16 05:07:23;;;;;;;6.78;3.08;;;;;;;-143.85;100.00;70650.75;5038211;28;20040;-89
2022/06/16 05:09:49;;;;;;;9.25;3.15;;;;;;;-143.85;100.00;70650.75;5038097;28;20021;-89
2022/06/16 05:12:14;;;;;;;6.22;3.78;;;;;;;-143.85;100.00;70650.75;5038232;28;20170;-89
2022/06/16 05:14:40;;;;;;;7.45;3.42;;;;;;;-143.85;100.00;70650.75;5038265;28;20425;-88
2022/06/16 05:17:05;;;;;;;5.72;3.72;;;;;;;-143.85;100.00;70650.75;5055954;28;20392;-94
2022/06/16 05:19:32;;;;;;;5.57;3.03;;;;;;;-143.85;100.00;70650.75;5038732;28;20465;-96
2022/06/16 05:22:00;;;;;;;14.15;4.05;;;;;;;-143.85;100.00;70650.75;5056791;28;20041;-94
2022/06/16 05:24:26;;;;;;;10.23;2.83;;;;;;;-143.85;100.00;70650.75;5038258;28;20396;-92
2022/06/16 05:26:52;;;;;;;9.10;2.85;;;;;;;-143.85;100.00;70650.75;5039967;28;20473;-96
2022/06/16 05:29:19;;;;;;;4.80;3.15;;;;;;;-143.85;100.00;70650.75;5047516;28;20087;-96
2022/06/16 05:31:45;;;;;;;6.82;3.15;;;;;;;-143.85;100.00;70650.75;5040741;28;20035;-92
2022/06/16 05:34:10;;;;;;;3.33;2.75;;;;;;;-143.85;100.00;70650.75;5037418;28;20128;-91
2022/06/16 05:36:36;;;;;;;7.13;3.63;;;;;;;-143.85;100.00;70650.75;5037356;28;20119;-95
2022/06/16 05:39:02;;;;;;;6.40;4.20;;;;;;;-143.85;100.00;70650.75;5037726;28;20029;-93
2022/06/16 05:41:27;;;;;;;5.78;3.80;;;;;;;-143.85;100.00;70650.75;5038259;28;20029;-93
2022/06/16 05:43:53;;;;;;;8.10;3.85;;;;;;;-143.85;100.00;70650.75;5037249;28;20572;-93
2022/06/16 05:46:22;;;;;;;9.80;4.40;;;;;;;-143.85;100.00;70650.75;5037469;28;20025;-92
2022/06/16 05:48:47;;;;;;;5.72;4.63;;;;;;;-143.85;100.00;70650.75;5036966;28;20551;-92
2022/06/16 05:51:15;;;;;;;9.82;4.72;;;;;;;-143.85;100.00;70650.75;5037573;28;20060;-94
2022/06/16 05:53:41;;;;;;;;;;;;;;;-143.85;100.00;70650.75;5039519;28;20025;-96
2022/06/16 05:56:07;;;;;;;9.00;4.50;;;;;;;-143.85;100.00;70650.75;5058121;28;19966;-92
2022/06/16 05:58:33;;;;;;;8.75;4.30;;;;;;;-143.85;100.00;70650.75;5054403;28;20025;-90
2022/06/16 06:00:59;;;;;;;6.90;4.25;;;;;;;-143.85;100.00;70650.75;5037216;28;20040;-93
2022/06/16 06:03:25;;;;;;;6.88;4.78;;;;;;;-143.85;100.00;70650.75;5037419;28;20036;-92
2022/06/16 06:05:51;;;;;;;8.88;5.43;;;;;;;-143.85;100.00;70650.75;5036956;28;20024;-92
2022/06/16 06:16:37;;;;;;;11.40;4.90;;;;;;;-143.85;100.00;70650.75;5054663;28;20113;-94
2022/06/16 06:19:24;;;;;;;10.82;5.38;;;;;;;-143.85;100.00;70650.75;5036805;28;20040;-94
2022/06/16 06:22:03;;;;;;;9.10;4.05;;;;;;;-143.85;100.00;70650.75;5037197;28;20025;-94
2022/06/16 06:24:36;;;;;;;7.25;4.38;;;;;;;-143.85;100.00;70650.75;5037131;28;20032;-94
2022/06/16 06:27:34;;;;;;;8.15;4.50;;;;;;;-143.85;100.00;70650.75;5036919;28;20025;-93
2022/06/16 06:30:02;;;;;;;11.02;4.82;;;;;;;-143.85;100.00;70650.75;5032341;28;20045;-94
2022/06/16 06:32:28;;;;;;;8.82;4.90;;;;;;;-143.85;100.00;70650.75;5036567;28;20031;-93
2022/06/16 06:34:54;;;;;;;8.73;4.38;;;;;;;-143.85;100.00;70650.75;5036649;28;20127;-93
2022/06/16 06:37:22;;;;;;;12.57;5.05;;;;;;;-143.85;100.00;70650.75;5036476;28;20106;-93
2022/06/16 06:39:49;;;;;;;14.70;5.63;;;;;;;-143.85;100.00;70650.75;5054216;28;20056;-93
2022/06/16 06:42:14;;;;;;;9.75;5.82;;;;;;;-143.85;100.00;70650.75;5054124;28;20032;-93
2022/06/16 06:44:40;;;;;;;8.98;5.78;;;;;;;-143.85;100.00;70650.75;5054079;28;20029;-92
2022/06/16 06:47:05;;;;;;;8.98;6.32;;;;;;;-143.85;100.00;70650.75;5036041;28;20103;-92
2022/06/16 06:49:31;;;;;;;11.52;5.93;;;;;;;-143.85;100.00;70650.75;5053664;28;20025;-92
2022/06/16 06:51:56;;;;;;;9.90;5.75;;;;;;;-143.85;100.00;70650.75;5036691;28;20031;-89
2022/06/16 06:54:22;;;;;;;13.68;6.50;;;;;;;-143.85;100.00;70650.75;5036189;28;20124;-90
2022/06/16 06:56:49;;;;;;;16.08;6.07;;;;;;;-143.85;100.00;70650.75;5036319;28;20024;-90
2022/06/16 06:59:18;;;;;;;9.55;5.00;;;;;;;-143.85;100.00;70650.75;5053756;28;20108;-89
2022/06/16 07:01:49;;;;;;;10.70;5.35;;;;;;;-143.85;100.00;70650.75;5036386;28;20028;-90
2022/06/16 07:04:16;;;;;;;10.75;5.85;;;;;;;-143.85;100.00;70650.75;5036517;28;20040;-88
2022/06/16 07:06:42;;;;;;;10.15;6.00;;;;;;;-143.85;100.00;70650.75;5035939;28;20028;-89
2022/06/16 07:09:10;;;;;;;10.13;5.38;;;;;;;-143.85;100.00;70650.75;5036508;28;20029;-89
2022/06/16 07:11:37;;;;;;;9.63;5.43;;;;;;;-143.85;100.00;70650.75;5036366;28;20091;-89
2022/06/16 07:14:02;;;;;;;7.78;4.63;;;;;;;-143.85;100.00;70650.75;5035849;28;20143;-88
2022/06/16 07:16:28;;;;;;;7.68;4.35;;;;;;;-143.85;100.00;70650.75;5036295;28;20499;-89
2022/06/16 07:18:53;;;;;;;5.50;3.97;;;;;;;-143.85;100.00;70650.75;5035884;28;20044;-90
2022/06/16 07:21:18;;;;;;;7.93;4.53;;;;;;;-143.85;100.00;70650.75;5053918;28;20027;-88
